sensor_id;sensor_type;location;lat;lon;timestamp;temperature;humidity
10644;DHT22;5370;50.132;8.626;2022-09-09T00:03:56;18.20;80.10
10644;DHT22;5370;50.132;8.626;2022-09-09T00:06:31;18.30;80.40
10644;DHT22;5370;50.132;8.626;2022-09-09T00:09:07;18.20;80.40
10644;DHT22;5370;50.132;8.626;2022-09-09T00:11:45;18.20;80.30
10644;DHT22;5370;50.132;8.626;2022-09-09T00:14:29;18.20;80.20
10644;DHT22;5370;50.132;8.626;2022-09-09T00:17:08;18.20;80.30
10644;DHT22;5370;50.132;8.626;2022-09-09T00:22:21;18.10;80.40
10644;DHT22;5370;50.132;8.626;2022-09-09T00:24:55;18.10;80.60
10644;DHT22;5370;50.132;8.626;2022-09-09T00:27:31;18.00;80.70
10644;DHT22;5370;50.132;8.626;2022-09-09T00:30:19;18.00;81.00
10644;DHT22;5370;50.132;8.626;2022-09-09T00:32:49;18.00;80.90
10644;DHT22;5370;50.132;8.626;2022-09-09T00:35:29;18.00;81.20
10644;DHT22;5370;50.132;8.626;2022-09-09T00:38:00;17.90;81.50
10644;DHT22;5370;50.132;8.626;2022-09-09T00:40:34;17.80;81.80
10644;DHT22;5370;50.132;8.626;2022-09-09T00:43:35;17.80;82.10
10644;DHT22;5370;50.132;8.626;2022-09-09T00:46:16;17.80;82.50
10644;DHT22;5370;50.132;8.626;2022-09-09T00:57:25;17.60;82.80
10644;DHT22;5370;50.132;8.626;2022-09-09T01:05:42;17.40;83.00
10644;DHT22;5370;50.132;8.626;2022-09-09T01:08:39;17.40;83.60
10644;DHT22;5370;50.132;8.626;2022-09-09T01:11:11;17.40;84.00
10644;DHT22;5370;50.132;8.626;2022-09-09T01:13:41;17.30;84.20
10644;DHT22;5370;50.132;8.626;2022-09-09T01:16:10;17.30;84.40
10644;DHT22;5370;50.132;8.626;2022-09-09T01:18:43;17.30;84.40
10644;DHT22;5370;50.132;8.626;2022-09-09T01:21:32;17.30;84.80
10644;DHT22;5370;50.132;8.626;2022-09-09T01:26:45;17.20;85.10
10644;DHT22;5370;50.132;8.626;2022-09-09T01:29:16;17.20;85.00
10644;DHT22;5370;50.132;8.626;2022-09-09T01:31:58;17.20;85.20
10644;DHT22;5370;50.132;8.626;2022-09-09T01:34:27;17.10;85.30
10644;DHT22;5370;50.132;8.626;2022-09-09T01:39:34;17.00;85.70
10644;DHT22;5370;50.132;8.626;2022-09-09T01:42:01;17.00;86.10
10644;DHT22;5370;50.132;8.626;2022-09-09T01:44:27;16.90;86.40
10644;DHT22;5370;50.132;8.626;2022-09-09T01:46:53;16.90;86.80
10644;DHT22;5370;50.132;8.626;2022-09-09T01:49:18;16.80;87.20
10644;DHT22;5370;50.132;8.626;2022-09-09T01:51:48;16.80;87.60
10644;DHT22;5370;50.132;8.626;2022-09-09T01:54:14;16.80;88.00
10644;DHT22;5370;50.132;8.626;2022-09-09T01:57:01;16.80;88.20
10644;DHT22;5370;50.132;8.626;2022-09-09T02:04:43;16.60;88.90
10644;DHT22;5370;50.132;8.626;2022-09-09T02:07:41;16.70;89.70
10644;DHT22;5370;50.132;8.626;2022-09-09T02:10:21;16.70;90.00
10644;DHT22;5370;50.132;8.626;2022-09-09T02:12:53;16.60;90.20
10644;DHT22;5370;50.132;8.626;2022-09-09T02:18:10;16.70;90.50
10644;DHT22;5370;50.132;8.626;2022-09-09T02:20:38;16.70;90.50
10644;DHT22;5370;50.132;8.626;2022-09-09T02:23:05;16.70;90.50
10644;DHT22;5370;50.132;8.626;2022-09-09T02:25:33;16.80;90.70
10644;DHT22;5370;50.132;8.626;2022-09-09T02:28:02;16.80;90.70
10644;DHT22;5370;50.132;8.626;2022-09-09T02:30:29;16.90;90.80
10644;DHT22;5370;50.132;8.626;2022-09-09T02:32:58;16.90;90.90
10644;DHT22;5370;50.132;8.626;2022-09-09T02:35:25;17.00;90.90
10644;DHT22;5370;50.132;8.626;2022-09-09T02:37:53;17.10;90.90
10644;DHT22;5370;50.132;8.626;2022-09-09T02:40:20;17.20;91.00
10644;DHT22;5370;50.132;8.626;2022-09-09T02:42:48;17.30;91.00
10644;DHT22;5370;50.132;8.626;2022-09-09T02:45:18;17.30;91.00
10644;DHT22;5370;50.132;8.626;2022-09-09T02:50:24;17.50;90.60
10644;DHT22;5370;50.132;8.626;2022-09-09T02:53:19;17.60;90.30
10644;DHT22;5370;50.132;8.626;2022-09-09T02:55:48;17.60;90.00
10644;DHT22;5370;50.132;8.626;2022-09-09T02:58:17;17.70;89.40
10644;DHT22;5370;50.132;8.626;2022-09-09T03:00:45;17.60;88.90
10644;DHT22;5370;50.132;8.626;2022-09-09T03:03:11;17.70;88.80
10644;DHT22;5370;50.132;8.626;2022-09-09T03:05:37;17.70;88.50
10644;DHT22;5370;50.132;8.626;2022-09-09T03:08:04;17.70;88.30
10644;DHT22;5370;50.132;8.626;2022-09-09T03:10:31;17.70;88.20
10644;DHT22;5370;50.132;8.626;2022-09-09T03:12:57;17.70;88.10
10644;DHT22;5370;50.132;8.626;2022-09-09T03:15:23;17.70;88.10
10644;DHT22;5370;50.132;8.626;2022-09-09T03:17:48;17.70;87.90
10644;DHT22;5370;50.132;8.626;2022-09-09T03:20:14;17.70;87.90
10644;DHT22;5370;50.132;8.626;2022-09-09T03:22:39;17.70;88.50
10644;DHT22;5370;50.132;8.626;2022-09-09T03:25:06;17.60;87.80
10644;DHT22;5370;50.132;8.626;2022-09-09T03:27:32;17.60;87.80
10644;DHT22;5370;50.132;8.626;2022-09-09T03:29:58;17.60;88.00
10644;DHT22;5370;50.132;8.626;2022-09-09T03:32:24;17.50;88.00
10644;DHT22;5370;50.132;8.626;2022-09-09T03:34:51;17.50;88.10
10644;DHT22;5370;50.132;8.626;2022-09-09T03:37:17;17.40;88.20
10644;DHT22;5370;50.132;8.626;2022-09-09T03:39:43;17.40;88.30
10644;DHT22;5370;50.132;8.626;2022-09-09T03:42:11;17.40;88.50
10644;DHT22;5370;50.132;8.626;2022-09-09T03:44:37;17.30;88.80
10644;DHT22;5370;50.132;8.626;2022-09-09T03:47:03;17.30;89.10
10644;DHT22;5370;50.132;8.626;2022-09-09T03:49:28;17.30;89.30
10644;DHT22;5370;50.132;8.626;2022-09-09T03:51:55;17.30;89.60
10644;DHT22;5370;50.132;8.626;2022-09-09T03:54:23;17.20;89.70
10644;DHT22;5370;50.132;8.626;2022-09-09T03:56:49;17.30;90.00
10644;DHT22;5370;50.132;8.626;2022-09-09T03:59:14;17.30;90.00
10644;DHT22;5370;50.132;8.626;2022-09-09T04:01:40;17.30;89.90
10644;DHT22;5370;50.132;8.626;2022-09-09T04:04:05;17.30;89.90
10644;DHT22;5370;50.132;8.626;2022-09-09T04:06:31;17.30;89.90
10644;DHT22;5370;50.132;8.626;2022-09-09T04:08:57;17.30;89.70
10644;DHT22;5370;50.132;8.626;2022-09-09T04:11:22;17.30;89.70
10644;DHT22;5370;50.132;8.626;2022-09-09T04:13:48;17.20;89.80
10644;DHT22;5370;50.132;8.626;2022-09-09T04:16:14;17.20;89.90
10644;DHT22;5370;50.132;8.626;2022-09-09T04:18:40;17.20;89.90
10644;DHT22;5370;50.132;8.626;2022-09-09T04:21:06;17.20;90.00
10644;DHT22;5370;50.132;8.626;2022-09-09T04:23:33;17.20;90.10
10644;DHT22;5370;50.132;8.626;2022-09-09T04:26:00;17.20;90.10
10644;DHT22;5370;50.132;8.626;2022-09-09T04:28:32;17.20;90.10
10644;DHT22;5370;50.132;8.626;2022-09-09T04:31:07;17.20;90.20
10644;DHT22;5370;50.132;8.626;2022-09-09T04:33:34;17.20;90.30
10644;DHT22;5370;50.132;8.626;2022-09-09T04:36:00;17.20;90.30
10644;DHT22;5370;50.132;8.626;2022-09-09T04:38:26;17.20;90.20
10644;DHT22;5370;50.132;8.626;2022-09-09T04:40:52;17.20;90.20
10644;DHT22;5370;50.132;8.626;2022-09-09T04:43:19;17.10;90.30
10644;DHT22;5370;50.132;8.626;2022-09-09T04:45:48;17.10;90.40
10644;DHT22;5370;50.132;8.626;2022-09-09T04:48:14;17.10;90.50
10644;DHT22;5370;50.132;8.626;2022-09-09T04:50:39;17.10;90.50
10644;DHT22;5370;50.132;8.626;2022-09-09T04:53:06;17.10;90.60
10644;DHT22;5370;50.132;8.626;2022-09-09T04:55:32;17.10;90.60
10644;DHT22;5370;50.132;8.626;2022-09-09T04:58:06;17.10;90.60
10644;DHT22;5370;50.132;8.626;2022-09-09T05:00:32;17.10;90.80
10644;DHT22;5370;50.132;8.626;2022-09-09T05:03:02;17.10;90.90
10644;DHT22;5370;50.132;8.626;2022-09-09T05:05:28;17.10;91.00
10644;DHT22;5370;50.132;8.626;2022-09-09T05:07:53;17.20;91.00
10644;DHT22;5370;50.132;8.626;2022-09-09T05:10:19;17.10;91.00
10644;DHT22;5370;50.132;8.626;2022-09-09T05:12:52;17.20;91.10
10644;DHT22;5370;50.132;8.626;2022-09-09T05:15:18;17.20;91.10
10644;DHT22;5370;50.132;8.626;2022-09-09T05:17:46;17.20;91.10
10644;DHT22;5370;50.132;8.626;2022-09-09T05:20:11;17.20;91.10
10644;DHT22;5370;50.132;8.626;2022-09-09T05:22:37;17.20;91.20
10644;DHT22;5370;50.132;8.626;2022-09-09T05:25:03;17.20;91.10
10644;DHT22;5370;50.132;8.626;2022-09-09T05:27:29;17.20;91.10
10644;DHT22;5370;50.132;8.626;2022-09-09T05:29:56;17.20;91.10
10644;DHT22;5370;50.132;8.626;2022-09-09T05:32:22;17.30;91.20
10644;DHT22;5370;50.132;8.626;2022-09-09T05:34:48;17.30;91.20
10644;DHT22;5370;50.132;8.626;2022-09-09T05:37:13;17.30;91.10
10644;DHT22;5370;50.132;8.626;2022-09-09T05:39:39;17.40;91.10
10644;DHT22;5370;50.132;8.626;2022-09-09T05:42:05;17.50;91.10
10644;DHT22;5370;50.132;8.626;2022-09-09T05:44:31;17.50;90.90
10644;DHT22;5370;50.132;8.626;2022-09-09T05:46:56;17.60;90.80
10644;DHT22;5370;50.132;8.626;2022-09-09T05:49:23;17.60;90.70
10644;DHT22;5370;50.132;8.626;2022-09-09T05:51:49;17.70;90.60
10644;DHT22;5370;50.132;8.626;2022-09-09T05:54:16;17.80;90.40
10644;DHT22;5370;50.132;8.626;2022-09-09T05:56:41;17.80;90.10
10644;DHT22;5370;50.132;8.626;2022-09-09T05:59:07;17.90;90.00
10644;DHT22;5370;50.132;8.626;2022-09-09T06:01:35;17.90;89.50
10644;DHT22;5370;50.132;8.626;2022-09-09T06:04:01;17.90;89.10
10644;DHT22;5370;50.132;8.626;2022-09-09T06:06:31;18.00;89.00
10644;DHT22;5370;50.132;8.626;2022-09-09T06:08:58;18.00;88.70
10644;DHT22;5370;50.132;8.626;2022-09-09T06:11:26;18.10;89.00
10644;DHT22;5370;50.132;8.626;2022-09-09T06:13:52;18.20;88.20
10644;DHT22;5370;50.132;8.626;2022-09-09T06:16:22;18.30;88.10
10644;DHT22;5370;50.132;8.626;2022-09-09T06:18:51;18.50;87.70
10644;DHT22;5370;50.132;8.626;2022-09-09T06:21:25;18.70;86.60
10644;DHT22;5370;50.132;8.626;2022-09-09T06:23:51;18.80;86.00
10644;DHT22;5370;50.132;8.626;2022-09-09T06:26:25;19.00;84.60
10644;DHT22;5370;50.132;8.626;2022-09-09T06:28:52;19.10;83.70
10644;DHT22;5370;50.132;8.626;2022-09-09T06:31:20;19.20;82.90
10644;DHT22;5370;50.132;8.626;2022-09-09T06:33:47;19.30;81.90
10644;DHT22;5370;50.132;8.626;2022-09-09T06:36:21;19.40;81.50
10644;DHT22;5370;50.132;8.626;2022-09-09T06:38:47;19.60;80.70
10644;DHT22;5370;50.132;8.626;2022-09-09T06:41:15;19.80;79.70
10644;DHT22;5370;50.132;8.626;2022-09-09T06:43:41;20.00;78.60
10644;DHT22;5370;50.132;8.626;2022-09-09T06:46:22;20.00;77.50
10644;DHT22;5370;50.132;8.626;2022-09-09T06:48:48;20.00;76.50
10644;DHT22;5370;50.132;8.626;2022-09-09T06:51:19;20.10;76.50
10644;DHT22;5370;50.132;8.626;2022-09-09T06:53:47;20.10;76.00
10644;DHT22;5370;50.132;8.626;2022-09-09T06:56:19;20.20;75.60
10644;DHT22;5370;50.132;8.626;2022-09-09T06:58:47;20.20;75.20
10644;DHT22;5370;50.132;8.626;2022-09-09T07:01:16;20.20;74.50
10644;DHT22;5370;50.132;8.626;2022-09-09T07:03:45;20.30;74.10
10644;DHT22;5370;50.132;8.626;2022-09-09T07:06:22;20.30;73.60
10644;DHT22;5370;50.132;8.626;2022-09-09T07:08:56;20.30;72.80
10644;DHT22;5370;50.132;8.626;2022-09-09T07:11:25;20.30;72.60
10644;DHT22;5370;50.132;8.626;2022-09-09T07:13:52;20.40;72.50
10644;DHT22;5370;50.132;8.626;2022-09-09T07:16:20;20.40;72.20
10644;DHT22;5370;50.132;8.626;2022-09-09T07:18:56;20.40;71.80
10644;DHT22;5370;50.132;8.626;2022-09-09T07:21:23;20.40;71.80
10644;DHT22;5370;50.132;8.626;2022-09-09T07:23:50;20.40;71.80
10644;DHT22;5370;50.132;8.626;2022-09-09T07:26:21;20.40;71.70
10644;DHT22;5370;50.132;8.626;2022-09-09T07:28:47;20.40;71.50
10644;DHT22;5370;50.132;8.626;2022-09-09T07:31:19;20.50;71.30
10644;DHT22;5370;50.132;8.626;2022-09-09T07:33:45;20.50;71.10
10644;DHT22;5370;50.132;8.626;2022-09-09T07:36:20;20.50;71.00
10644;DHT22;5370;50.132;8.626;2022-09-09T07:38:51;20.50;70.50
10644;DHT22;5370;50.132;8.626;2022-09-09T07:41:22;20.60;70.40
10644;DHT22;5370;50.132;8.626;2022-09-09T07:43:49;20.60;70.00
10644;DHT22;5370;50.132;8.626;2022-09-09T07:46:16;20.80;69.80
10644;DHT22;5370;50.132;8.626;2022-09-09T07:48:47;20.90;69.30
10644;DHT22;5370;50.132;8.626;2022-09-09T07:51:18;20.90;68.60
10644;DHT22;5370;50.132;8.626;2022-09-09T07:53:45;21.00;68.40
10644;DHT22;5370;50.132;8.626;2022-09-09T07:56:14;21.10;67.90
10644;DHT22;5370;50.132;8.626;2022-09-09T07:58:44;21.10;67.40
10644;DHT22;5370;50.132;8.626;2022-09-09T08:01:12;21.20;67.00
10644;DHT22;5370;50.132;8.626;2022-09-09T08:03:39;21.20;66.50
10644;DHT22;5370;50.132;8.626;2022-09-09T08:06:07;21.20;66.00
10644;DHT22;5370;50.132;8.626;2022-09-09T08:08:34;21.10;66.00
10644;DHT22;5370;50.132;8.626;2022-09-09T08:11:05;21.10;66.20
10644;DHT22;5370;50.132;8.626;2022-09-09T08:13:31;21.00;66.20
10644;DHT22;5370;50.132;8.626;2022-09-09T08:16:04;21.10;66.30
10644;DHT22;5370;50.132;8.626;2022-09-09T08:18:30;21.10;66.20
10644;DHT22;5370;50.132;8.626;2022-09-09T08:20:56;21.10;66.40
10644;DHT22;5370;50.132;8.626;2022-09-09T08:23:21;21.40;66.40
10644;DHT22;5370;50.132;8.626;2022-09-09T08:25:47;21.50;65.60
10644;DHT22;5370;50.132;8.626;2022-09-09T08:28:14;21.60;65.00
10644;DHT22;5370;50.132;8.626;2022-09-09T08:30:39;21.60;64.40
10644;DHT22;5370;50.132;8.626;2022-09-09T08:33:05;21.60;64.10
10644;DHT22;5370;50.132;8.626;2022-09-09T08:35:30;21.60;63.80
10644;DHT22;5370;50.132;8.626;2022-09-09T08:37:57;21.60;63.70
10644;DHT22;5370;50.132;8.626;2022-09-09T08:40:28;21.80;64.10
10644;DHT22;5370;50.132;8.626;2022-09-09T08:42:57;22.20;63.70
10644;DHT22;5370;50.132;8.626;2022-09-09T08:45:34;22.60;62.60
10644;DHT22;5370;50.132;8.626;2022-09-09T08:50:42;22.90;59.90
10644;DHT22;5370;50.132;8.626;2022-09-09T08:53:16;23.00;59.50
10644;DHT22;5370;50.132;8.626;2022-09-09T08:58:20;23.00;58.70
10644;DHT22;5370;50.132;8.626;2022-09-09T09:03:50;22.90;57.90
10644;DHT22;5370;50.132;8.626;2022-09-09T09:11:37;23.10;57.00
10644;DHT22;5370;50.132;8.626;2022-09-09T09:14:18;23.20;56.80
10644;DHT22;5370;50.132;8.626;2022-09-09T09:16:49;23.20;56.70
10644;DHT22;5370;50.132;8.626;2022-09-09T09:19:16;23.30;56.70
10644;DHT22;5370;50.132;8.626;2022-09-09T09:21:46;23.20;57.10
10644;DHT22;5370;50.132;8.626;2022-09-09T09:24:23;23.20;56.50
10644;DHT22;5370;50.132;8.626;2022-09-09T09:26:50;23.20;56.20
10644;DHT22;5370;50.132;8.626;2022-09-09T09:29:19;23.30;56.20
10644;DHT22;5370;50.132;8.626;2022-09-09T09:31:53;23.30;56.10
10644;DHT22;5370;50.132;8.626;2022-09-09T09:34:20;23.40;55.90
10644;DHT22;5370;50.132;8.626;2022-09-09T09:36:59;23.50;55.90
10644;DHT22;5370;50.132;8.626;2022-09-09T09:39:33;23.80;55.80
10644;DHT22;5370;50.132;8.626;2022-09-09T09:42:11;24.10;55.10
10644;DHT22;5370;50.132;8.626;2022-09-09T09:44:41;24.30;54.60
10644;DHT22;5370;50.132;8.626;2022-09-09T09:47:14;24.40;54.00
10644;DHT22;5370;50.132;8.626;2022-09-09T09:50:00;24.40;53.60
10644;DHT22;5370;50.132;8.626;2022-09-09T09:52:29;24.30;53.60
10644;DHT22;5370;50.132;8.626;2022-09-09T09:54:56;24.10;53.60
10644;DHT22;5370;50.132;8.626;2022-09-09T09:57:28;24.00;53.90
10644;DHT22;5370;50.132;8.626;2022-09-09T10:00:06;24.00;54.10
10644;DHT22;5370;50.132;8.626;2022-09-09T10:02:39;23.90;54.40
10644;DHT22;5370;50.132;8.626;2022-09-09T10:05:23;24.00;54.70
10644;DHT22;5370;50.132;8.626;2022-09-09T10:08:14;24.20;54.70
10644;DHT22;5370;50.132;8.626;2022-09-09T10:10:51;24.40;54.50
10644;DHT22;5370;50.132;8.626;2022-09-09T10:16:32;24.70;53.50
10644;DHT22;5370;50.132;8.626;2022-09-09T10:19:18;24.80;53.50
10644;DHT22;5370;50.132;8.626;2022-09-09T10:24:58;24.80;53.30
10644;DHT22;5370;50.132;8.626;2022-09-09T10:30:20;24.70;53.60
10644;DHT22;5370;50.132;8.626;2022-09-09T10:33:13;24.70;54.10
10644;DHT22;5370;50.132;8.626;2022-09-09T10:38:41;24.50;54.30
10644;DHT22;5370;50.132;8.626;2022-09-09T10:52:29;22.90;57.00
10644;DHT22;5370;50.132;8.626;2022-09-09T10:55:01;22.60;57.60
10644;DHT22;5370;50.132;8.626;2022-09-09T10:57:48;22.50;58.00
10644;DHT22;5370;50.132;8.626;2022-09-09T11:00:39;22.30;58.60
10644;DHT22;5370;50.132;8.626;2022-09-09T11:03:06;22.20;59.30
10644;DHT22;5370;50.132;8.626;2022-09-09T11:05:49;22.20;59.80
10644;DHT22;5370;50.132;8.626;2022-09-09T11:08:23;22.40;60.30
10644;DHT22;5370;50.132;8.626;2022-09-09T11:11:01;22.60;60.40
10644;DHT22;5370;50.132;8.626;2022-09-09T11:13:55;23.00;59.30
10644;DHT22;5370;50.132;8.626;2022-09-09T11:16:38;23.40;58.30
10644;DHT22;5370;50.132;8.626;2022-09-09T11:19:47;23.50;57.40
10644;DHT22;5370;50.132;8.626;2022-09-09T11:22:25;23.60;57.00
10644;DHT22;5370;50.132;8.626;2022-09-09T11:31:04;24.20;51.70
10644;DHT22;5370;50.132;8.626;2022-09-09T11:33:59;24.20;50.20
10644;DHT22;5370;50.132;8.626;2022-09-09T11:42:12;23.90;48.50
10644;DHT22;5370;50.132;8.626;2022-09-09T11:44:41;23.80;48.90
10644;DHT22;5370;50.132;8.626;2022-09-09T11:47:39;23.70;49.20
10644;DHT22;5370;50.132;8.626;2022-09-09T11:52:45;23.80;49.70
10644;DHT22;5370;50.132;8.626;2022-09-09T11:57:37;23.90;49.20
10644;DHT22;5370;50.132;8.626;2022-09-09T12:00:04;24.00;48.80
10644;DHT22;5370;50.132;8.626;2022-09-09T12:02:31;24.00;48.70
10644;DHT22;5370;50.132;8.626;2022-09-09T12:05:08;24.00;48.80
10644;DHT22;5370;50.132;8.626;2022-09-09T12:12:35;24.10;49.90
10644;DHT22;5370;50.132;8.626;2022-09-09T12:17:42;24.60;48.80
10644;DHT22;5370;50.132;8.626;2022-09-09T12:20:21;24.70;48.30
10644;DHT22;5370;50.132;8.626;2022-09-09T12:23:02;24.80;47.80
10644;DHT22;5370;50.132;8.626;2022-09-09T12:25:44;24.70;47.70
10644;DHT22;5370;50.132;8.626;2022-09-09T12:28:18;24.60;47.70
10644;DHT22;5370;50.132;8.626;2022-09-09T12:33:40;24.50;47.70
10644;DHT22;5370;50.132;8.626;2022-09-09T12:36:13;24.40;47.80
10644;DHT22;5370;50.132;8.626;2022-09-09T12:38:41;24.30;48.00
10644;DHT22;5370;50.132;8.626;2022-09-09T12:41:22;24.20;48.50
10644;DHT22;5370;50.132;8.626;2022-09-09T12:43:50;24.20;48.70
10644;DHT22;5370;50.132;8.626;2022-09-09T12:46:24;24.20;49.20
10644;DHT22;5370;50.132;8.626;2022-09-09T12:48:53;24.10;49.50
10644;DHT22;5370;50.132;8.626;2022-09-09T12:51:28;23.90;50.70
10644;DHT22;5370;50.132;8.626;2022-09-09T12:53:55;23.60;51.90
10644;DHT22;5370;50.132;8.626;2022-09-09T12:56:23;23.20;52.90
10644;DHT22;5370;50.132;8.626;2022-09-09T12:58:53;22.80;54.00
10644;DHT22;5370;50.132;8.626;2022-09-09T13:01:22;22.50;55.00
10644;DHT22;5370;50.132;8.626;2022-09-09T13:03:48;22.20;55.80
10644;DHT22;5370;50.132;8.626;2022-09-09T13:06:23;22.10;56.70
10644;DHT22;5370;50.132;8.626;2022-09-09T13:08:53;22.00;57.30
10644;DHT22;5370;50.132;8.626;2022-09-09T13:13:55;22.00;58.60
10644;DHT22;5370;50.132;8.626;2022-09-09T13:16:33;22.10;59.10
10644;DHT22;5370;50.132;8.626;2022-09-09T13:19:08;22.20;59.10
10644;DHT22;5370;50.132;8.626;2022-09-09T13:21:37;22.40;59.30
10644;DHT22;5370;50.132;8.626;2022-09-09T13:24:05;22.50;59.30
10644;DHT22;5370;50.132;8.626;2022-09-09T13:26:33;22.60;59.10
10644;DHT22;5370;50.132;8.626;2022-09-09T13:29:18;22.70;59.00
10644;DHT22;5370;50.132;8.626;2022-09-09T13:31:44;22.80;58.70
10644;DHT22;5370;50.132;8.626;2022-09-09T13:34:22;22.90;58.20
10644;DHT22;5370;50.132;8.626;2022-09-09T13:36:55;22.90;57.50
10644;DHT22;5370;50.132;8.626;2022-09-09T13:39:23;23.00;56.90
10644;DHT22;5370;50.132;8.626;2022-09-09T13:41:48;23.10;56.60
10644;DHT22;5370;50.132;8.626;2022-09-09T13:44:19;23.10;56.00
10644;DHT22;5370;50.132;8.626;2022-09-09T13:46:45;23.20;55.00
10644;DHT22;5370;50.132;8.626;2022-09-09T13:51:45;23.50;53.60
10644;DHT22;5370;50.132;8.626;2022-09-09T13:54:13;23.60;52.40
10644;DHT22;5370;50.132;8.626;2022-09-09T13:56:40;23.60;52.30
10644;DHT22;5370;50.132;8.626;2022-09-09T13:59:11;23.60;52.20
10644;DHT22;5370;50.132;8.626;2022-09-09T14:01:36;23.70;51.80
10644;DHT22;5370;50.132;8.626;2022-09-09T14:04:03;23.70;51.60
10644;DHT22;5370;50.132;8.626;2022-09-09T14:06:29;23.70;51.40
10644;DHT22;5370;50.132;8.626;2022-09-09T14:08:54;23.70;51.10
10644;DHT22;5370;50.132;8.626;2022-09-09T14:11:20;23.50;51.00
10644;DHT22;5370;50.132;8.626;2022-09-09T14:13:47;23.40;51.10
10644;DHT22;5370;50.132;8.626;2022-09-09T14:16:15;23.20;51.40
10644;DHT22;5370;50.132;8.626;2022-09-09T14:18:41;23.00;51.80
10644;DHT22;5370;50.132;8.626;2022-09-09T14:21:07;22.70;52.00
10644;DHT22;5370;50.132;8.626;2022-09-09T14:23:33;22.50;52.40
10644;DHT22;5370;50.132;8.626;2022-09-09T14:25:59;22.40;52.80
10644;DHT22;5370;50.132;8.626;2022-09-09T14:28:24;22.20;53.10
10644;DHT22;5370;50.132;8.626;2022-09-09T14:30:50;22.00;53.40
10644;DHT22;5370;50.132;8.626;2022-09-09T14:33:16;21.80;53.60
10644;DHT22;5370;50.132;8.626;2022-09-09T14:35:43;21.70;53.80
10644;DHT22;5370;50.132;8.626;2022-09-09T14:38:09;21.70;54.30
10644;DHT22;5370;50.132;8.626;2022-09-09T14:40:36;21.60;54.50
10644;DHT22;5370;50.132;8.626;2022-09-09T14:43:03;21.70;54.60
10644;DHT22;5370;50.132;8.626;2022-09-09T14:45:29;21.70;54.70
10644;DHT22;5370;50.132;8.626;2022-09-09T14:47:55;21.80;54.90
10644;DHT22;5370;50.132;8.626;2022-09-09T14:50:22;21.80;54.80
10644;DHT22;5370;50.132;8.626;2022-09-09T14:52:48;21.80;55.00
10644;DHT22;5370;50.132;8.626;2022-09-09T14:55:14;21.80;55.50
10644;DHT22;5370;50.132;8.626;2022-09-09T14:57:40;21.70;55.70
10644;DHT22;5370;50.132;8.626;2022-09-09T15:00:07;21.80;56.30
10644;DHT22;5370;50.132;8.626;2022-09-09T15:02:33;21.90;56.40
10644;DHT22;5370;50.132;8.626;2022-09-09T15:04:59;22.10;56.20
10644;DHT22;5370;50.132;8.626;2022-09-09T15:07:25;22.30;56.00
10644;DHT22;5370;50.132;8.626;2022-09-09T15:09:52;22.50;55.40
10644;DHT22;5370;50.132;8.626;2022-09-09T15:12:18;22.70;55.10
10644;DHT22;5370;50.132;8.626;2022-09-09T15:14:44;22.80;54.80
10644;DHT22;5370;50.132;8.626;2022-09-09T15:17:11;22.90;54.60
10644;DHT22;5370;50.132;8.626;2022-09-09T15:19:37;22.80;54.60
10644;DHT22;5370;50.132;8.626;2022-09-09T15:22:03;22.90;54.50
10644;DHT22;5370;50.132;8.626;2022-09-09T15:24:34;23.00;54.30
10644;DHT22;5370;50.132;8.626;2022-09-09T15:27:00;23.00;54.20
10644;DHT22;5370;50.132;8.626;2022-09-09T15:29:26;23.10;54.00
10644;DHT22;5370;50.132;8.626;2022-09-09T15:31:54;23.10;54.00
10644;DHT22;5370;50.132;8.626;2022-09-09T15:34:20;23.20;53.80
10644;DHT22;5370;50.132;8.626;2022-09-09T15:36:46;23.30;53.30
10644;DHT22;5370;50.132;8.626;2022-09-09T15:39:13;23.40;53.00
10644;DHT22;5370;50.132;8.626;2022-09-09T15:41:41;23.50;52.70
10644;DHT22;5370;50.132;8.626;2022-09-09T15:44:08;23.50;52.40
10644;DHT22;5370;50.132;8.626;2022-09-09T15:46:43;23.50;52.30
10644;DHT22;5370;50.132;8.626;2022-09-09T15:49:11;23.40;52.10
10644;DHT22;5370;50.132;8.626;2022-09-09T15:51:39;23.30;52.40
10644;DHT22;5370;50.132;8.626;2022-09-09T15:54:06;23.10;52.40
10644;DHT22;5370;50.132;8.626;2022-09-09T15:56:31;22.90;52.50
10644;DHT22;5370;50.132;8.626;2022-09-09T15:58:58;22.70;52.80
10644;DHT22;5370;50.132;8.626;2022-09-09T16:01:25;22.50;53.20
10644;DHT22;5370;50.132;8.626;2022-09-09T16:03:51;22.20;53.60
10644;DHT22;5370;50.132;8.626;2022-09-09T16:06:18;22.00;54.10
10644;DHT22;5370;50.132;8.626;2022-09-09T16:08:47;21.80;54.60
10644;DHT22;5370;50.132;8.626;2022-09-09T16:11:20;21.60;54.90
10644;DHT22;5370;50.132;8.626;2022-09-09T16:13:48;21.40;55.30
10644;DHT22;5370;50.132;8.626;2022-09-09T16:16:14;21.20;55.70
10644;DHT22;5370;50.132;8.626;2022-09-09T16:18:43;21.10;56.20
10644;DHT22;5370;50.132;8.626;2022-09-09T16:21:18;20.90;56.70
10644;DHT22;5370;50.132;8.626;2022-09-09T16:23:44;20.80;57.10
10644;DHT22;5370;50.132;8.626;2022-09-09T16:26:15;20.70;57.40
10644;DHT22;5370;50.132;8.626;2022-09-09T16:28:41;20.60;57.80
10644;DHT22;5370;50.132;8.626;2022-09-09T16:31:08;20.50;58.00
10644;DHT22;5370;50.132;8.626;2022-09-09T16:33:36;20.40;58.30
10644;DHT22;5370;50.132;8.626;2022-09-09T16:36:13;20.40;58.70
10644;DHT22;5370;50.132;8.626;2022-09-09T16:38:39;20.40;59.20
10644;DHT22;5370;50.132;8.626;2022-09-09T16:41:06;20.40;59.30
10644;DHT22;5370;50.132;8.626;2022-09-09T16:43:32;20.30;59.50
10644;DHT22;5370;50.132;8.626;2022-09-09T16:45:58;20.20;59.60
10644;DHT22;5370;50.132;8.626;2022-09-09T16:48:27;20.20;59.70
10644;DHT22;5370;50.132;8.626;2022-09-09T16:51:01;20.20;59.80
10644;DHT22;5370;50.132;8.626;2022-09-09T16:53:27;20.20;59.90
10644;DHT22;5370;50.132;8.626;2022-09-09T16:55:53;20.10;59.80
10644;DHT22;5370;50.132;8.626;2022-09-09T16:58:18;20.10;60.00
10644;DHT22;5370;50.132;8.626;2022-09-09T17:00:44;20.10;59.90
10644;DHT22;5370;50.132;8.626;2022-09-09T17:03:14;20.00;59.80
10644;DHT22;5370;50.132;8.626;2022-09-09T17:05:41;20.00;59.80
10644;DHT22;5370;50.132;8.626;2022-09-09T17:08:06;20.00;59.90
10644;DHT22;5370;50.132;8.626;2022-09-09T17:10:32;19.90;59.90
10644;DHT22;5370;50.132;8.626;2022-09-09T17:12:58;19.90;60.10
10644;DHT22;5370;50.132;8.626;2022-09-09T17:15:23;19.90;60.20
10644;DHT22;5370;50.132;8.626;2022-09-09T17:17:49;19.80;60.10
10644;DHT22;5370;50.132;8.626;2022-09-09T17:20:19;19.80;60.30
10644;DHT22;5370;50.132;8.626;2022-09-09T17:22:44;19.80;60.50
10644;DHT22;5370;50.132;8.626;2022-09-09T17:25:10;19.70;60.60
10644;DHT22;5370;50.132;8.626;2022-09-09T17:27:36;19.70;61.00
10644;DHT22;5370;50.132;8.626;2022-09-09T17:30:02;19.70;61.20
10644;DHT22;5370;50.132;8.626;2022-09-09T17:32:28;19.60;61.30
10644;DHT22;5370;50.132;8.626;2022-09-09T17:34:55;19.60;61.60
10644;DHT22;5370;50.132;8.626;2022-09-09T17:37:21;19.60;61.80
10644;DHT22;5370;50.132;8.626;2022-09-09T17:39:46;19.60;62.00
10644;DHT22;5370;50.132;8.626;2022-09-09T17:42:12;19.60;62.20
10644;DHT22;5370;50.132;8.626;2022-09-09T17:44:37;19.50;62.40
10644;DHT22;5370;50.132;8.626;2022-09-09T17:47:04;19.50;62.60